Time;durP1;ratioP1;P1;durP2;ratioP2;P2;SDS_P1;SDS_P2;PMS_P1;PMS_P2;Temp;Humidity;BMP_temperature;BMP_pressure;BME280_temperature;BME280_humidity;BME280_pressure;Samples;Min_cycle;Max_cycle;Signal;HPM_P1;HPM_P2
2024/03/01 00:02:10;;;;;;;0.20;0.10;;;;;;;2.33;95.34;99296.50;5074669;28;20446;-48
2024/03/01 00:04:36;;;;;;;0.20;0.10;;;;;;;2.26;95.11;99305.34;5071162;28;20450;-48
2024/03/01 00:07:04;;;;;;;0.20;0.10;;;;;;;2.28;95.23;99298.34;5062781;28;20485;-48
2024/03/01 00:09:31;;;;;;;0.20;0.10;;;;;;;2.19;95.48;99301.91;5056744;28;20465;-48
2024/03/01 00:11:57;;;;;;;0.30;0.20;;;;;;;1.99;96.93;99301.28;5075567;28;20957;-48
2024/03/01 00:14:24;;;;;;;0.20;0.10;;;;;;;2.10;96.19;99296.78;5075530;28;20485;-48
2024/03/01 00:16:50;;;;;;;0.20;0.10;;;;;;;2.16;95.89;99301.94;5075604;28;20534;-48
2024/03/01 00:19:17;;;;;;;0.20;0.10;;;;;;;2.13;95.45;99288.03;5075416;28;20522;-48
2024/03/01 00:21:43;;;;;;;0.20;0.10;;;;;;;2.34;96.76;99300.91;5075369;28;20450;-48
2024/03/01 00:24:10;;;;;;;0.20;0.10;;;;;;;2.22;95.25;99304.53;5075807;28;20537;-48
2024/03/01 00:26:36;;;;;;;0.20;0.10;;;;;;;2.18;95.36;99307.19;5075290;28;20474;-48
2024/03/01 00:29:03;;;;;;;0.20;0.10;;;;;;;2.24;94.74;99304.50;5075332;28;21046;-48
2024/03/01 00:31:29;;;;;;;0.20;0.10;;;;;;;1.97;95.43;99290.81;5075284;28;21054;-48
2024/03/01 00:33:56;;;;;;;0.20;0.10;;;;;;;2.02;95.58;99289.00;5063293;28;20488;-48
2024/03/01 00:36:23;;;;;;;0.20;0.10;;;;;;;1.86;95.20;99281.31;5065660;28;20469;-48
2024/03/01 00:38:49;;;;;;;0.20;0.10;;;;;;;1.78;95.36;99286.59;5074553;28;20501;-48
2024/03/01 00:41:16;;;;;;;0.20;0.10;;;;;;;1.75;95.43;99286.66;5073278;28;20456;-48
2024/03/01 00:43:42;;;;;;;0.20;0.10;;;;;;;1.74;96.71;99291.03;5067206;28;20946;-48
2024/03/01 00:46:08;;;;;;;0.20;0.10;;;;;;;1.98;96.30;99289.91;5068092;28;20461;-48
2024/03/01 00:48:35;;;;;;;0.20;0.10;;;;;;;1.95;95.87;99284.72;5053986;28;20466;-48
2024/03/01 00:51:02;;;;;;;0.20;0.10;;;;;;;1.81;95.22;99285.75;5070250;28;20442;-48
2024/03/01 00:53:28;;;;;;;0.20;0.10;;;;;;;1.82;95.27;99288.34;5074259;28;20457;-48
2024/03/01 00:55:55;;;;;;;0.20;0.20;;;;;;;1.83;94.98;99290.06;5047932;28;20458;-48
2024/03/01 00:58:21;;;;;;;0.20;0.10;;;;;;;1.86;94.45;99286.56;5074464;28;20512;-48
2024/03/01 01:00:48;;;;;;;0.20;0.10;;;;;;;1.82;94.61;99290.97;5074841;28;20482;-49
2024/03/01 01:03:15;;;;;;;0.77;0.77;;;;;;;1.72;94.55;99297.16;5075105;28;20457;-48
2024/03/01 01:05:41;;;;;;;0.20;0.10;;;;;;;1.74;95.36;99291.03;5060655;28;20450;-48
2024/03/01 01:08:08;;;;;;;0.20;0.10;;;;;;;1.74;95.36;99296.25;5074464;28;20502;-48
2024/03/01 01:10:34;;;;;;;0.20;0.20;;;;;;;1.72;96.18;99286.69;5059597;28;20799;-49
2024/03/01 01:13:01;;;;;;;0.20;0.10;;;;;;;1.91;96.52;99293.47;5073954;28;20462;-48
2024/03/01 01:15:27;;;;;;;0.20;0.10;;;;;;;1.96;95.27;99291.69;5073573;28;20531;-48
2024/03/01 01:17:54;;;;;;;0.20;0.20;;;;;;;1.83;95.30;99283.97;5073729;28;20494;-48
2024/03/01 01:20:20;;;;;;;0.20;0.10;;;;;;;1.67;95.43;99281.50;5073510;28;20485;-48
2024/03/01 01:22:47;;;;;;;0.30;0.20;;;;;;;1.75;95.82;99276.16;5073401;28;20537;-48
2024/03/01 01:25:14;;;;;;;0.20;0.10;;;;;;;1.72;95.54;99274.44;5074132;28;20441;-48
2024/03/01 01:27:40;;;;;;;0.20;0.10;;;;;;;1.99;95.54;99270.69;5074082;28;20957;-48
2024/03/01 01:30:07;;;;;;;0.30;0.10;;;;;;;1.92;95.57;99276.91;5074082;28;20450;-48
2024/03/01 01:32:34;;;;;;;0.20;0.10;;;;;;;2.07;95.81;99279.34;5074263;28;20484;-50
2024/03/01 01:35:00;;;;;;;0.20;0.10;;;;;;;1.96;95.92;99275.97;5066845;28;20456;-47
2024/03/01 01:37:27;;;;;;;0.20;0.10;;;;;;;1.87;95.00;99276.06;5044167;28;20450;-48
2024/03/01 01:39:53;;;;;;;1.50;1.40;;;;;;;1.88;95.87;99271.69;5070199;28;20486;-48
2024/03/01 01:42:20;;;;;;;0.20;0.10;;;;;;;1.87;96.63;99264.72;5067689;28;20459;-48
2024/03/01 01:44:47;;;;;;;0.20;0.10;;;;;;;1.89;97.20;99258.56;5070085;28;20449;-48
2024/03/01 01:47:14;;;;;;;0.30;0.20;;;;;;;1.87;97.35;99256.84;5073094;28;20454;-48
2024/03/01 01:49:41;;;;;;;0.20;0.10;;;;;;;1.80;97.22;99257.81;5072691;28;20458;-48
2024/03/01 01:52:09;;;;;;;0.20;0.10;;;;;;;1.85;96.65;99259.47;5067375;28;20511;-48
2024/03/01 01:54:36;;;;;;;0.20;0.10;;;;;;;1.99;96.65;99251.47;5073041;28;20850;-49
2024/03/01 01:57:04;;;;;;;0.20;0.10;;;;;;;1.90;96.32;99246.31;5051064;28;20475;-48
2024/03/01 01:59:30;;;;;;;0.20;0.10;;;;;;;1.85;95.72;99242.91;5069617;28;20494;-48
2024/03/01 02:01:58;;;;;;;0.20;0.10;;;;;;;1.82;96.45;99243.81;5073797;28;20460;-48
2024/03/01 02:04:24;;;;;;;0.20;0.10;;;;;;;1.78;95.48;99245.59;5072511;28;20477;-48
2024/03/01 02:06:51;;;;;;;0.20;0.10;;;;;;;1.91;95.21;99243.69;5057939;28;20537;-48
2024/03/01 02:09:18;;;;;;;0.20;0.10;;;;;;;1.91;95.13;99250.69;5073128;28;20485;-48
2024/03/01 02:11:45;;;;;;;0.20;0.10;;;;;;;1.88;95.44;99245.47;5072840;28;20446;-48
2024/03/01 02:14:11;;;;;;;0.20;0.10;;;;;;;1.85;96.09;99240.28;5072363;28;20449;-48
2024/03/01 02:16:38;;;;;;;0.20;0.10;;;;;;;1.98;96.35;99239.25;5072459;28;20958;-48
2024/03/01 02:19:13;;;;;;;0.20;0.10;;;;;;;1.90;95.77;99241.97;5072277;28;20570;-48
2024/03/01 02:21:57;;;;;;;0.20;0.20;;;;;;;2.12;96.20;99242.59;5072189;28;20445;-48
2024/03/01 02:24:23;;;;;;;0.20;0.10;;;;;;;2.22;95.98;99240.75;5072599;28;20452;-48
2024/03/01 02:26:53;;;;;;;0.20;0.10;;;;;;;2.19;96.40;99240.75;5072335;28;20628;-48
2024/03/01 02:29:19;;;;;;;0.20;0.10;;;;;;;2.18;96.79;99242.50;5072677;28;20466;-48
2024/03/01 02:31:46;;;;;;;0.20;0.10;;;;;;;2.16;97.60;99231.19;5072292;28;20445;-48
2024/03/01 02:34:12;;;;;;;0.20;0.10;;;;;;;2.13;98.81;99230.34;5072443;28;20460;-48
2024/03/01 02:36:40;;;;;;;0.20;0.10;;;;;;;2.27;99.93;99226.69;5036297;28;20475;-49
2024/03/01 02:39:16;;;;;;;0.20;0.10;;;;;;;2.26;100.00;99226.69;5053646;28;20494;-48
2024/03/01 02:41:47;;;;;;;0.20;0.10;;;;;;;2.44;100.00;99222.97;5067910;28;20453;-49
2024/03/01 02:44:14;;;;;;;0.20;0.10;;;;;;;2.59;100.00;99228.00;5070379;28;20470;-49
2024/03/01 02:46:40;;;;;;;0.30;0.10;;;;;;;2.53;100.00;99228.97;5078282;28;20557;-49
2024/03/01 02:49:07;;;;;;;0.20;0.10;;;;;;;2.70;99.77;99227.88;5075482;28;20501;-49
2024/03/01 02:51:34;;;;;;;0.20;0.10;;;;;;;2.72;99.81;99210.34;5082602;28;20445;-49
2024/03/01 02:54:01;;;;;;;0.20;0.10;;;;;;;2.71;100.00;99206.84;5082326;28;20453;-49
2024/03/01 02:56:27;;;;;;;0.20;0.10;;;;;;;2.95;99.86;99208.25;5055967;28;20965;-49
2024/03/01 02:58:54;;;;;;;0.20;0.10;;;;;;;2.83;100.00;99211.06;5077592;28;20530;-50
2024/03/01 03:01:22;;;;;;;0.30;0.10;;;;;;;2.67;100.00;99202.56;5083171;28;20532;-49
2024/03/01 03:03:49;;;;;;;0.20;0.10;;;;;;;2.55;100.00;99208.84;5078657;28;20789;-49
2024/03/01 03:06:16;;;;;;;0.20;0.10;;;;;;;2.62;100.00;99200.00;5060238;28;20446;-49
2024/03/01 03:08:42;;;;;;;0.20;0.10;;;;;;;2.77;100.00;99203.28;5076725;28;20461;-49
2024/03/01 03:11:08;;;;;;;0.20;0.13;;;;;;;3.03;100.00;99195.88;5076034;28;20901;-49
2024/03/01 03:13:35;;;;;;;0.20;0.10;;;;;;;2.81;99.39;99187.47;5075880;28;20446;-49
2024/03/01 03:16:02;;;;;;;0.20;0.10;;;;;;;2.87;99.74;99192.63;5076303;28;20826;-49
2024/03/01 03:18:28;;;;;;;0.20;0.10;;;;;;;2.93;99.43;99189.03;5075701;28;20489;-49
2024/03/01 03:20:55;;;;;;;0.20;0.13;;;;;;;2.80;99.25;99188.38;5074781;28;20533;-49
2024/03/01 03:23:21;;;;;;;1.03;1.03;;;;;;;2.67;98.86;99190.31;5075695;28;20450;-49
2024/03/01 03:25:48;;;;;;;0.20;0.10;;;;;;;2.71;98.68;99190.25;5071584;28;20439;-49
2024/03/01 03:28:19;;;;;;;0.20;0.10;;;;;;;2.74;98.59;99190.19;5070683;28;20497;-49
2024/03/01 03:30:46;;;;;;;0.20;0.10;;;;;;;2.78;98.68;99205.91;5076855;28;20446;-49
2024/03/01 03:33:12;;;;;;;0.20;0.10;;;;;;;2.51;98.29;99201.03;5076656;28;20827;-49
2024/03/01 03:35:39;;;;;;;3.13;2.00;;;;;;;2.56;98.35;99207.06;5057192;28;20790;-49
2024/03/01 03:38:05;;;;;;;0.20;0.10;;;;;;;2.42;98.26;99201.16;5058668;28;20469;-49
2024/03/01 03:40:31;;;;;;;0.20;0.10;;;;;;;2.52;98.08;99203.63;5053898;28;20484;-49
2024/03/01 03:42:59;;;;;;;4.00;3.80;;;;;;;2.44;97.07;99196.75;5049170;28;20452;-50
2024/03/01 03:45:26;;;;;;;0.20;0.10;;;;;;;2.34;97.38;99194.28;5076363;28;20472;-49
2024/03/01 03:47:52;;;;;;;0.70;0.70;;;;;;;2.25;97.23;99202.25;5076014;28;20466;-49
2024/03/01 03:50:19;;;;;;;0.20;0.10;;;;;;;2.29;98.69;99190.81;5076405;28;20449;-49
2024/03/01 03:52:45;;;;;;;0.20;0.10;;;;;;;1.91;98.60;99193.03;5076058;28;20545;-48
2024/03/01 03:55:11;;;;;;;0.20;0.10;;;;;;;2.09;99.86;99198.09;5076607;28;20532;-49
2024/03/01 03:57:38;;;;;;;0.20;0.10;;;;;;;2.04;99.98;99212.97;5075613;28;20450;-50
2024/03/01 04:00:09;;;;;;;0.20;0.20;;;;;;;2.23;99.57;99225.00;5075764;28;21073;-49
2024/03/01 04:02:36;;;;;;;0.20;0.10;;;;;;;2.20;99.13;99222.41;5075881;28;20453;-49
2024/03/01 04:05:04;;;;;;;0.20;0.10;;;;;;;1.92;97.58;99227.13;5064485;28;20487;-49
2024/03/01 04:07:30;;;;;;;0.20;0.10;;;;;;;1.89;98.28;99228.88;5070610;28;20537;-49
2024/03/01 04:09:57;;;;;;;0.20;0.10;;;;;;;1.97;98.62;99225.28;5053869;28;20447;-49
2024/03/01 04:12:23;;;;;;;0.20;0.10;;;;;;;2.24;99.23;99218.88;5053441;28;20450;-49
2024/03/01 04:14:50;;;;;;;0.20;0.10;;;;;;;2.07;99.94;99219.06;5046121;28;21032;-49
2024/03/01 04:17:16;;;;;;;0.20;0.10;;;;;;;2.22;100.00;99220.63;5058693;28;20442;-49
2024/03/01 04:19:42;;;;;;;0.20;0.10;;;;;;;2.42;100.00;99219.50;5072282;28;20489;-48
2024/03/01 04:22:09;;;;;;;0.20;0.10;;;;;;;2.45;100.00;99225.56;5055837;28;20457;-48
2024/03/01 04:24:35;;;;;;;0.20;0.10;;;;;;;2.66;100.00;99230.53;5047244;28;20818;-49
2024/03/01 04:27:02;;;;;;;0.20;0.10;;;;;;;2.62;100.00;99228.84;5069372;28;20935;-49
2024/03/01 04:29:29;;;;;;;0.20;0.10;;;;;;;2.66;100.00;99238.41;5075079;28;20553;-49
2024/03/01 04:31:55;;;;;;;0.20;0.10;;;;;;;2.78;100.00;99241.75;5074681;28;20536;-49
2024/03/01 04:34:22;;;;;;;0.20;0.10;;;;;;;2.84;100.00;99252.16;5074389;28;20960;-49
2024/03/01 04:36:49;;;;;;;0.20;0.10;;;;;;;2.78;100.00;99245.25;5052875;28;20955;-49
2024/03/01 04:39:15;;;;;;;0.20;0.10;;;;;;;2.86;100.00;99246.00;5066473;28;20502;-49
2024/03/01 04:41:42;;;;;;;0.30;0.20;;;;;;;2.85;100.00;99256.50;5074748;28;20519;-49
2024/03/01 04:44:08;;;;;;;0.20;0.10;;;;;;;2.86;100.00;99246.00;5074795;28;20955;-49
2024/03/01 04:46:39;;;;;;;0.20;0.10;;;;;;;2.84;100.00;99242.53;5074342;28;20533;-49
2024/03/01 04:49:06;;;;;;;0.20;0.10;;;;;;;2.83;100.00;99243.41;5074480;28;20462;-49
2024/03/01 04:51:33;;;;;;;0.20;0.10;;;;;;;2.89;100.00;99243.34;5073898;28;20985;-50
2024/03/01 04:53:59;;;;;;;0.20;0.10;;;;;;;2.86;100.00;99243.38;5074584;28;20485;-49
2024/03/01 04:56:26;;;;;;;0.20;0.10;;;;;;;3.10;100.00;99244.75;5074093;28;20567;-50
2024/03/01 04:58:53;;;;;;;0.20;0.10;;;;;;;3.20;100.00;99243.75;5073944;28;20497;-49
2024/03/01 05:01:20;;;;;;;0.20;0.10;;;;;;;3.26;100.00;99258.50;5062839;28;20959;-49
2024/03/01 05:03:46;;;;;;;0.20;0.10;;;;;;;3.31;100.00;99240.09;5066475;28;20452;-49
2024/03/01 05:06:12;;;;;;;0.20;0.10;;;;;;;3.47;100.00;99246.81;5056259;28;20528;-49
2024/03/01 05:08:39;;;;;;;0.20;0.10;;;;;;;3.54;100.00;99246.66;5074028;28;20470;-49
2024/03/01 05:11:06;;;;;;;0.20;0.20;;;;;;;3.24;100.00;99241.91;5074007;28;20450;-49
2024/03/01 05:13:32;;;;;;;0.20;0.10;;;;;;;3.25;100.00;99256.78;5074023;28;20450;-49
2024/03/01 05:16:00;;;;;;;0.30;0.10;;;;;;;3.07;100.00;99255.31;5047160;28;20453;-49
2024/03/01 05:18:26;;;;;;;0.20;0.10;;;;;;;3.13;100.00;99246.47;5073386;28;20466;-49
2024/03/01 05:20:53;;;;;;;0.20;0.10;;;;;;;3.07;100.00;99244.81;5073570;28;20568;-49
2024/03/01 05:23:23;;;;;;;0.20;0.10;;;;;;;3.08;100.00;99251.81;5073505;28;20485;-49
2024/03/01 05:25:51;;;;;;;0.20;0.10;;;;;;;3.09;100.00;99250.91;5073487;28;20503;-49
2024/03/01 05:28:18;;;;;;;0.20;0.13;;;;;;;3.16;100.00;99251.69;5073547;28;20465;-49
2024/03/01 05:30:45;;;;;;;0.20;0.20;;;;;;;3.13;100.00;99265.72;5073864;28;20452;-49
2024/03/01 05:33:18;;;;;;;0.20;0.10;;;;;;;3.24;100.00;99258.53;5073244;28;20946;-49
2024/03/01 05:35:45;;;;;;;0.20;0.10;;;;;;;3.26;100.00;99255.88;5050728;28;20480;-49
2024/03/01 05:38:11;;;;;;;0.20;0.10;;;;;;;3.30;100.00;99254.09;5049948;28;20475;-49
2024/03/01 05:40:38;;;;;;;0.20;0.10;;;;;;;3.15;100.00;99255.19;5063025;28;20531;-49
2024/03/01 05:43:19;;;;;;;0.30;0.20;;;;;;;3.30;100.00;99248.84;5064538;28;20452;-49
2024/03/01 05:45:45;;;;;;;0.20;0.10;;;;;;;3.37;100.00;99258.34;5073117;28;20532;-49
2024/03/01 05:48:12;;;;;;;0.20;0.10;;;;;;;3.37;100.00;99267.09;5072894;28;20470;-49
2024/03/01 05:50:39;;;;;;;0.20;0.10;;;;;;;3.45;100.00;99253.84;5073286;28;20442;-49
2024/03/01 05:53:13;;;;;;;0.30;0.20;;;;;;;3.47;100.00;99258.19;5073151;28;20503;-49
2024/03/01 05:55:41;;;;;;;0.20;0.10;;;;;;;3.41;100.00;99253.00;5073215;28;20441;-49
2024/03/01 05:58:08;;;;;;;0.30;0.10;;;;;;;3.63;100.00;99258.78;5073250;28;20568;-49
2024/03/01 06:00:38;;;;;;;0.20;0.17;;;;;;;3.83;100.00;99255.78;5073121;28;21021;-49
2024/03/01 06:03:04;;;;;;;0.20;0.10;;;;;;;3.72;100.00;99253.38;5072938;28;20453;-49
2024/03/01 06:05:31;;;;;;;0.20;0.10;;;;;;;3.71;100.00;99258.66;5054373;28;20558;-51
2024/03/01 06:07:57;;;;;;;0.20;0.10;;;;;;;4.00;100.00;99260.75;5072999;28;20509;-50
2024/03/01 06:10:24;;;;;;;0.20;0.20;;;;;;;3.92;100.00;99265.28;5072578;28;20529;-49
2024/03/01 06:12:50;;;;;;;0.20;0.10;;;;;;;3.84;100.00;99271.56;5072387;28;20449;-49
2024/03/01 06:15:17;;;;;;;0.20;0.20;;;;;;;3.81;100.00;99275.97;5072559;28;20496;-50
2024/03/01 06:17:43;;;;;;;0.20;0.10;;;;;;;3.76;100.00;99269.94;5072583;28;20983;-49
2024/03/01 06:20:10;;;;;;;0.20;0.10;;;;;;;3.79;100.00;99278.63;5072382;28;20861;-49
2024/03/01 06:22:36;;;;;;;0.20;0.10;;;;;;;3.83;100.00;99279.44;5072562;28;20455;-49
2024/03/01 06:25:05;;;;;;;0.20;0.10;;;;;;;3.71;100.00;99279.69;5072213;28;20508;-49
2024/03/01 06:27:35;;;;;;;0.20;0.10;;;;;;;3.74;100.00;99285.75;5072329;28;20503;-49
2024/03/01 06:30:01;;;;;;;0.20;0.10;;;;;;;3.81;100.00;99294.38;5072368;28;20450;-50
2024/03/01 06:32:28;;;;;;;5.07;4.70;;;;;;;3.89;100.00;99291.63;5072701;28;20549;-49
2024/03/01 06:34:55;;;;;;;0.20;0.13;;;;;;;3.82;100.00;99283.84;5063621;28;21193;-49
2024/03/01 06:37:21;;;;;;;0.20;0.10;;;;;;;3.78;100.00;99291.81;5041180;28;20447;-49
2024/03/01 06:39:48;;;;;;;0.20;0.10;;;;;;;3.86;100.00;99293.41;5068092;28;20493;-49
2024/03/01 06:42:14;;;;;;;0.20;0.10;;;;;;;4.07;100.00;99284.25;5067806;28;20454;-49
2024/03/01 06:44:42;;;;;;;0.20;0.10;;;;;;;4.35;100.00;99295.13;5068908;28;20480;-50
2024/03/01 06:47:09;;;;;;;0.30;0.20;;;;;;;4.33;100.00;99301.31;5072211;28;20496;-49
2024/03/01 06:49:44;;;;;;;0.20;0.10;;;;;;;4.39;100.00;99296.81;5072052;28;20468;-49
2024/03/01 06:52:11;;;;;;;0.20;0.10;;;;;;;4.45;100.00;99295.81;5072176;28;20446;-50
2024/03/01 06:54:37;;;;;;;0.20;0.17;;;;;;;4.58;100.00;99302.56;5072170;28;20501;-49
2024/03/01 06:57:04;;;;;;;0.20;0.10;;;;;;;4.29;100.00;99292.63;5072737;28;20450;-50
2024/03/01 06:59:30;;;;;;;0.20;0.10;;;;;;;4.32;100.00;99286.44;5072662;28;20974;-49
2024/03/01 07:01:58;;;;;;;0.20;0.10;;;;;;;4.35;100.00;99289.00;5073355;28;20537;-50
2024/03/01 07:04:24;;;;;;;0.23;0.20;;;;;;;4.30;100.00;99282.97;5072505;28;20446;-49
2024/03/01 07:06:50;;;;;;;0.20;0.10;;;;;;;4.61;100.00;99289.34;5057304;28;20449;-50
2024/03/01 07:09:19;;;;;;;0.20;0.10;;;;;;;4.74;100.00;99282.91;5073451;28;20472;-53
2024/03/01 07:11:45;;;;;;;0.20;0.10;;;;;;;4.84;100.00;99283.59;5073112;28;20453;-49
2024/03/01 07:14:12;;;;;;;0.30;0.20;;;;;;;4.79;100.00;99295.97;5073002;28;20842;-49
2024/03/01 07:16:39;;;;;;;0.20;0.10;;;;;;;4.86;100.00;99297.59;5073528;28;20448;-49
2024/03/01 07:19:05;;;;;;;0.30;0.20;;;;;;;4.99;100.00;99295.56;5073270;28;20498;-50
2024/03/01 07:21:32;;;;;;;0.20;0.20;;;;;;;5.01;100.00;99294.63;5073091;28;20486;-50
2024/03/01 07:23:58;;;;;;;0.30;0.20;;;;;;;5.09;100.00;99302.38;5073325;28;20449;-50
2024/03/01 07:26:25;;;;;;;0.20;0.10;;;;;;;5.07;100.00;99306.78;5073074;28;20460;-50
2024/03/01 07:28:51;;;;;;;0.20;0.10;;;;;;;5.01;100.00;99294.63;5046919;28;20476;-50
2024/03/01 07:31:18;;;;;;;0.30;0.10;;;;;;;5.05;99.60;99293.63;5072934;28;20809;-49
2024/03/01 07:33:44;;;;;;;0.20;0.10;;;;;;;5.26;99.77;99297.56;5073580;28;20461;-50
2024/03/01 07:36:12;;;;;;;0.30;0.20;;;;;;;5.21;99.63;99301.22;5045785;28;20451;-49
2024/03/01 07:38:39;;;;;;;0.30;0.20;;;;;;;5.04;99.77;99284.00;5046933;28;20527;-50
2024/03/01 07:41:06;;;;;;;0.20;0.20;;;;;;;5.20;99.30;99289.78;5073286;28;20513;-49
2024/03/01 07:43:33;;;;;;;0.20;0.10;;;;;;;5.42;99.46;99295.44;5064744;28;20887;-50
2024/03/01 07:45:59;;;;;;;0.30;0.20;;;;;;;5.45;99.46;99299.75;5073133;28;20450;-49
2024/03/01 07:48:26;;;;;;;0.30;0.20;;;;;;;5.34;98.97;99306.19;5073338;28;20474;-49
2024/03/01 07:50:52;;;;;;;0.27;0.17;;;;;;;5.61;99.31;99301.97;5076708;28;20448;-49
2024/03/01 07:53:19;;;;;;;0.30;0.20;;;;;;;5.60;98.45;99302.88;5076054;28;20482;-49
2024/03/01 07:55:47;;;;;;;0.23;0.17;;;;;;;5.61;99.14;99306.41;5076355;28;20488;-49
2024/03/01 07:58:13;;;;;;;0.30;0.17;;;;;;;5.72;98.56;99306.13;5074419;28;20533;-50
2024/03/01 08:00:40;;;;;;;0.20;0.10;;;;;;;5.62;99.32;99301.13;5075393;28;20489;-49
2024/03/01 08:03:09;;;;;;;1.27;1.27;;;;;;;5.88;98.07;99296.94;5075601;28;20938;-50
2024/03/01 08:05:40;;;;;;;0.30;0.20;;;;;;;6.01;97.85;99298.38;5057161;28;20458;-50
2024/03/01 08:08:10;;;;;;;0.27;0.20;;;;;;;6.11;97.17;99293.72;5076069;28;20471;-50
2024/03/01 08:10:44;;;;;;;0.30;0.20;;;;;;;5.99;98.30;99299.31;5075540;28;20446;-50
2024/03/01 08:13:12;;;;;;;0.30;0.20;;;;;;;6.06;99.13;99312.34;5075431;28;20526;-50
2024/03/01 08:15:40;;;;;;;0.30;0.20;;;;;;;6.05;98.69;99312.38;5074942;28;20450;-50
2024/03/01 08:18:17;;;;;;;0.30;0.20;;;;;;;6.23;98.02;99312.75;5075286;28;20465;-50
2024/03/01 08:20:56;;;;;;;0.30;0.17;;;;;;;6.22;97.02;99303.09;5074877;28;20489;-50
2024/03/01 08:23:28;;;;;;;0.50;0.50;;;;;;;6.26;98.19;99305.66;5075272;28;20452;-50
2024/03/01 08:25:57;;;;;;;1.60;1.57;;;;;;;6.27;99.54;99302.09;5075685;28;20533;-50
2024/03/01 08:28:30;;;;;;;0.30;0.20;;;;;;;6.29;99.01;99302.91;5075819;28;20466;-50
2024/03/01 08:31:03;;;;;;;0.30;0.10;;;;;;;6.40;98.97;99311.41;5076686;28;20469;-51
2024/03/01 08:33:33;;;;;;;0.30;0.20;;;;;;;6.38;100.00;99307.97;5076742;28;20446;-50
2024/03/01 08:35:59;;;;;;;0.30;0.10;;;;;;;6.49;99.75;99295.34;5062200;28;20994;-50
2024/03/01 08:38:42;;;;;;;0.30;0.20;;;;;;;6.68;100.00;99285.97;5060531;28;20917;-50
2024/03/01 08:41:10;;;;;;;0.30;0.20;;;;;;;6.79;98.91;99290.94;5075224;28;20489;-50
2024/03/01 08:43:39;;;;;;;0.30;0.20;;;;;;;6.90;98.69;99286.22;5065880;28;20494;-50
2024/03/01 08:46:22;;;;;;;0.30;0.20;;;;;;;7.53;97.68;99284.22;5074556;28;20541;-50
2024/03/01 08:48:49;;;;;;;0.30;0.20;;;;;;;7.31;97.02;99281.44;5074098;28;20466;-50
2024/03/01 08:51:18;;;;;;;0.30;0.20;;;;;;;7.33;97.71;99277.81;5074097;28;20549;-50
2024/03/01 08:53:54;;;;;;;0.30;0.20;;;;;;;7.58;97.33;99285.84;5074132;28;20472;-51
2024/03/01 08:56:21;;;;;;;0.30;0.20;;;;;;;7.61;96.62;99285.72;5073880;28;20507;-50
2024/03/01 08:58:48;;;;;;;0.30;0.20;;;;;;;7.74;96.51;99288.84;5074451;28;20572;-48
2024/03/01 09:01:37;;;;;;;1.43;1.33;;;;;;;8.20;95.82;99293.41;5073102;28;20495;-48
2024/03/01 09:04:14;;;;;;;0.30;0.20;;;;;;;8.03;95.20;99299.28;5073756;28;20446;-48
2024/03/01 09:06:41;;;;;;;0.30;0.20;;;;;;;8.03;95.96;99298.44;5055569;28;20869;-47
2024/03/01 09:09:08;;;;;;;0.30;0.10;;;;;;;7.92;97.28;99298.78;5073493;28;20505;-47
2024/03/01 09:11:37;;;;;;;0.30;0.20;;;;;;;7.92;96.94;99306.72;5073695;28;20442;-47
2024/03/01 09:14:04;;;;;;;0.30;0.20;;;;;;;8.05;96.09;99307.19;5073264;28;20495;-48
2024/03/01 09:16:31;;;;;;;0.30;0.20;;;;;;;8.09;96.69;99303.53;5073601;28;20532;-47
2024/03/01 09:18:58;;;;;;;0.60;0.60;;;;;;;8.07;96.22;99305.34;5073335;28;20477;-47
2024/03/01 09:21:30;;;;;;;0.30;0.20;;;;;;;7.72;97.17;99302.13;5073087;28;20539;-48
2024/03/01 09:23:58;;;;;;;0.30;0.20;;;;;;;7.83;97.26;99291.19;5073014;28;20463;-46
2024/03/01 09:26:25;;;;;;;0.30;0.20;;;;;;;7.84;97.44;99297.34;5071822;28;20839;-47
2024/03/01 09:28:58;;;;;;;0.30;0.20;;;;;;;7.86;98.04;99301.66;5073167;28;20469;-47
2024/03/01 09:31:24;;;;;;;0.30;0.20;;;;;;;7.86;98.56;99306.09;5073038;28;20452;-46
2024/03/01 09:33:51;;;;;;;0.40;0.37;;;;;;;7.82;98.93;99307.13;5073150;28;20461;-47
2024/03/01 09:36:19;;;;;;;0.30;0.20;;;;;;;7.82;98.70;99309.75;5041959;28;20456;-48
2024/03/01 09:38:51;;;;;;;0.30;0.20;;;;;;;7.82;99.63;99309.75;5060593;28;20492;-48
2024/03/01 09:41:55;;;;;;;0.30;0.20;;;;;;;8.03;99.03;99309.03;5072686;28;21048;-48
2024/03/01 09:44:42;;;;;;;0.30;0.20;;;;;;;7.99;99.85;99296.81;5059990;28;20446;-50
2024/03/01 09:47:46;;;;;;;0.30;0.20;;;;;;;8.01;99.84;99290.56;5052344;28;20949;-48
2024/03/01 09:50:48;;;;;;;0.30;0.20;;;;;;;8.25;99.69;99287.97;5072976;28;20465;-47
2024/03/01 09:53:45;;;;;;;0.30;0.20;;;;;;;8.33;98.91;99284.13;5049379;28;20534;-47
2024/03/01 09:56:24;;;;;;;0.30;0.20;;;;;;;8.41;98.27;99298.91;5072661;28;20473;-47
2024/03/01 09:59:00;;;;;;;4.13;2.30;;;;;;;8.46;97.38;99294.31;5072567;28;20484;-47
2024/03/01 10:01:31;;;;;;;0.30;0.20;;;;;;;8.41;97.43;99305.06;5072589;28;20493;-47
2024/03/01 10:04:22;;;;;;;0.30;0.20;;;;;;;8.52;97.14;99305.56;5072550;28;20468;-47
2024/03/01 10:07:00;;;;;;;0.30;0.20;;;;;;;8.58;96.93;99315.91;5056242;28;20567;-47
2024/03/01 10:09:36;;;;;;;0.30;0.20;;;;;;;8.69;96.25;99312.03;5045609;28;20466;-47
2024/03/01 10:12:28;;;;;;;0.30;0.20;;;;;;;8.75;96.42;99314.44;5071903;28;20446;-46
2024/03/01 10:15:01;;;;;;;0.30;0.20;;;;;;;8.73;96.55;99309.19;5072299;28;20987;-47
2024/03/01 10:17:42;;;;;;;0.30;0.20;;;;;;;8.77;96.95;99309.94;5072157;28;20532;-47
2024/03/01 10:20:24;;;;;;;0.43;0.20;;;;;;;8.86;96.95;99302.53;5072174;28;20942;-47
2024/03/01 10:23:08;;;;;;;0.30;0.20;;;;;;;9.02;96.49;99309.88;5072072;28;20477;-48
2024/03/01 10:25:51;;;;;;;0.30;0.20;;;;;;;9.06;95.96;99314.19;5072190;28;20818;-49
2024/03/01 10:28:49;;;;;;;0.30;0.20;;;;;;;9.15;95.24;99314.66;5072082;28;20561;-47
2024/03/01 10:31:28;;;;;;;0.30;0.20;;;;;;;9.37;95.45;99313.84;5072338;28;20438;-46
2024/03/01 10:34:18;;;;;;;0.30;0.20;;;;;;;9.51;94.95;99319.47;5072430;28;20528;-46
2024/03/01 10:36:51;;;;;;;0.30;0.20;;;;;;;9.39;94.44;99322.59;5037138;28;20796;-45
2024/03/01 10:39:41;;;;;;;0.30;0.20;;;;;;;9.41;94.04;99321.59;5064259;28;20552;-46
2024/03/01 10:42:13;;;;;;;0.30;0.20;;;;;;;9.67;93.01;99320.56;5068510;28;20573;-46
2024/03/01 10:45:18;;;;;;;0.30;0.20;;;;;;;9.72;91.59;99321.22;5068353;28;20488;-47
2024/03/01 10:47:45;;;;;;;0.30;0.20;;;;;;;9.88;89.77;99329.47;5071776;28;20982;-47
2024/03/01 10:50:22;;;;;;;0.30;0.20;;;;;;;10.08;88.16;99318.84;5072210;28;20503;-48
2024/03/01 10:53:00;;;;;;;0.30;0.20;;;;;;;9.85;87.01;99321.59;5071903;28;20455;-47
2024/03/01 10:55:46;;;;;;;0.30;0.20;;;;;;;9.85;87.08;99318.94;5071929;28;20791;-46
2024/03/01 10:58:22;;;;;;;0.30;0.20;;;;;;;9.73;87.09;99328.28;5071613;28;20920;-47
2024/03/01 11:01:24;;;;;;;0.30;0.20;;;;;;;9.86;87.28;99327.75;5066285;28;20490;-48
2024/03/01 11:03:58;;;;;;;0.30;0.20;;;;;;;9.95;86.58;99322.09;5045434;28;20479;-47
2024/03/01 11:06:31;;;;;;;0.30;0.20;;;;;;;9.86;85.76;99322.47;5071772;28;20792;-47
2024/03/01 11:09:09;;;;;;;0.30;0.20;;;;;;;9.98;85.57;99324.59;5071907;28;20474;-47
2024/03/01 11:11:46;;;;;;;0.30;0.20;;;;;;;9.81;85.92;99325.31;5070583;28;20434;-47
2024/03/01 11:14:17;;;;;;;0.30;0.20;;;;;;;9.80;85.73;99321.78;5072160;28;20446;-47
2024/03/01 11:16:47;;;;;;;0.30;0.20;;;;;;;9.85;85.53;99320.72;5071716;28;20815;-48
2024/03/01 11:19:19;;;;;;;0.30;0.20;;;;;;;10.08;85.05;99325.97;5045201;28;20511;-47
2024/03/01 11:21:54;;;;;;;0.30;0.20;;;;;;;9.77;85.83;99327.22;5071699;28;20521;-48
2024/03/01 11:24:26;;;;;;;0.30;0.20;;;;;;;9.77;86.06;99324.59;5073002;28;20445;-48
2024/03/01 11:26:55;;;;;;;0.30;0.20;;;;;;;9.87;86.07;99329.50;5075368;28;20452;-48
2024/03/01 11:29:41;;;;;;;0.30;0.20;;;;;;;9.80;85.30;99321.78;5075189;28;20469;-47
2024/03/01 11:32:29;;;;;;;0.30;0.20;;;;;;;10.07;84.20;99314.47;5058052;28;20442;-47
2024/03/01 11:35:13;;;;;;;0.30;0.20;;;;;;;10.03;85.15;99307.56;5069586;28;20827;-49
2024/03/01 11:38:02;;;;;;;0.40;0.40;;;;;;;10.20;84.59;99311.31;5047191;28;20794;-48
2024/03/01 11:40:54;;;;;;;0.30;0.20;;;;;;;10.51;82.81;99303.75;5052500;28;20441;-48
2024/03/01 11:43:39;;;;;;;0.30;0.20;;;;;;;10.73;82.30;99311.63;5035913;28;20458;-47
2024/03/01 11:46:32;;;;;;;0.30;0.20;;;;;;;11.03;81.07;99314.69;5074777;28;20475;-47
2024/03/01 11:49:21;;;;;;;0.30;0.20;;;;;;;11.15;80.61;99323.91;5075015;28;21013;-47
2024/03/01 11:52:25;;;;;;;0.30;0.20;;;;;;;11.42;79.78;99319.09;5074936;28;20495;-49
2024/03/01 11:55:30;;;;;;;0.30;0.20;;;;;;;10.93;79.35;99326.69;5000188;28;20485;-47